Wichita, KS (67277)

6:17 PM CDT on September 02, 2015 (GMT -0500)
Near the airport | | Change Station
CLOSE
Current Station
Personal Weather Station
Location: Wichita, KS
Elevation: 1348 ft
Nearby Weather Stations

Elev 1348 ft 37.65 °N, 97.44 °W | Updated 13 seconds ago

Partly Cloudy
Partly Cloudy
91.3 °F
Feels Like 93 °F
N
8.0
Wind Variable Wind from SSE
Gusts 16.0 mph

Today
High -- | Low -- °F
--% Chance of Precip.
Yesterday
High -- | Low -- °F
Precip. -- in
7:00 AM 7:57 PM
Waning Gibbous, 76% visible
Pressure 29.84 in
Visibility 10.0 miles
Clouds Few 15000 ft
Heat Index 93 °F
Dew Point 64 °F
Humidity 41%
Rainfall 0.00 in
Snow Depth Not available.
UV 2 out of 12
Pollen 11.50 out of 12
Air Quality Not available.
Flu Activity Not available.
METAR KICT 022253Z 16016KT 10SM FEW150 33/18 A2988 RMK AO2 PK WND 17028/2233 SLP103 T03330178
Pressure 29.84 in
Visibility 10.0 miles
Clouds Few 15000 ft
Heat Index 93 °F
Dew Point 64 °F
Humidity 41%
Rainfall 0.00 in
Snow Depth Not available.
UV 2 out of 12
Pollen 11.50 out of 12
Air Quality Not available.
Flu Activity Not available.
METAR KICT 022253Z 16016KT 10SM FEW150 33/18 A2988 RMK AO2 PK WND 17028/2233 SLP103 T03330178

10-Day Weather Forecast

×

Almanac

Astronomy

Sep. 02, 2015 Rise Set
Actual Time
Civil Twilight
Nautical Twilight
Astronomical Twilight
Moon
Length of Visible Light
Length of Day
Tomorrow will be .
, % of the Moon is Illuminated

Today's Extremes

State Highs State Lows

Community

WunderPhotos

Upload Photos

1,851,823 photos uploaded!

WunderBlogs® & News

Nearby

Air Quality

  Air Quality AQ Index Pollutant
Not available.

Snow Depth

Station Depth Elevation

Earthquake Activity

City Distance Mag. Time & Date
Minimum magnitude displayed is 2.5.

Coastal Water Temperatures

Place Temperature

Stations

Nearby Weather Stations

Station Location Temp. Windchill Dew Point Humidity Wind Precip. Elev Updated Type